CYGQ

Details ICAO CYGQ (YGQ)
Name GERALDTON GREENSTONE REGIONAL
Region Canada
Timezone America/Toronto (UTC-5.0)
Plans Departing 5
Arriving 2
Stats Elevation 1,144 ft / 349 m (AMSL)
Location 49.778472° -86.939307°
Runways 1
Magnetic Variation 6.234° W
Sunrise 2017-12-12 13:37:47 UTC / 2017-12-12 08:37:47 Local
Sunset 2017-12-12 21:48:17 UTC / 2017-12-12 16:48:17 Local
Advertisement - Login to hide

Runways

ID Width Length Bearing (true) Bearing (mag) Surface Threshold Offset Overrun Length
08 100 ft / 30 m 5,014 ft / 1,528 m 72.34° 78.57° Asphalt 0 ft / 0 m 0 ft / 0 m
26 100 ft / 30 m 5,014 ft / 1,528 m 252.35° 258.58° Asphalt 0 ft / 0 m 0 ft / 0 m

Map

Weather


0- 5 10 15 20 25 30 35+ Temperature / ° C

Clouds and Precipitation
Forecast for 2017-12-12 12:00 UTC. Updated an hour ago

Ground ~20,000 ft ~40,000 ft Winds

METAR

CYGQ 121200Z 31003KT 8SM -SN OVC033 M23/M26 A3001 RMK SC8 SLP203

TAF

TAF CYGQ 120738Z 1208/1220 34007KT 6SM -SN BKN020 TEMPO 1208/1216 P6SM NSW BKN025 FM121600 34007KT P6SM BKN025 TEMPO 1216/1220 6SM -SN BKN020 RMK NXT FCST BY 121400Z

Frequencies

Unicom 122.80 MHz CTAF/UNICOM
Warning: Do not use this data for real-world aviation or navigation. No guarantee of current accuracy is given.